Time;durP1;ratioP1;P1;durP2;ratioP2;P2;SDS_P1;SDS_P2;PMS_P1;PMS_P2;Temp;Humidity;BMP_temperature;BMP_pressure;BME280_temperature;BME280_humidity;BME280_pressure;Samples;Min_cycle;Max_cycle;Signal;HPM_P1;HPM_P2
2021/12/31 00:00:13;;;;;;;12.48;2.53;;;12.50;99.90;;;;;;5063818;28;20037;-76
2021/12/31 00:02:39;;;;;;;15.75;2.42;;;12.50;99.90;;;;;;5063914;28;20044;-76
2021/12/31 00:05:06;;;;;;;12.85;2.33;;;12.50;99.90;;;;;;5060141;28;20127;-76
2021/12/31 00:07:32;;;;;;;14.88;2.92;;;12.50;99.90;;;;;;5058856;28;20115;-76
2021/12/31 00:10:01;;;;;;;11.18;2.50;;;12.40;99.90;;;;;;5062679;28;20062;-76
2021/12/31 00:12:30;;;;;;;15.60;3.22;;;12.40;99.90;;;;;;5055917;28;20037;-76
2021/12/31 00:14:57;;;;;;;17.67;2.65;;;12.40;99.90;;;;;;5062506;28;20048;-76
2021/12/31 00:17:23;;;;;;;17.17;3.97;;;12.40;99.90;;;;;;5063230;28;20558;-76
2021/12/31 00:19:58;;;;;;;12.05;3.17;;;12.40;99.90;;;;;;5063350;28;20040;-76
2021/12/31 00:24:53;;;;;;;13.55;2.40;;;12.40;99.90;;;;;;5062394;28;20056;-76
2021/12/31 00:27:19;;;;;;;12.20;2.63;;;12.40;99.90;;;;;;5060351;28;20136;-76
2021/12/31 00:29:44;;;;;;;17.00;2.58;;;12.40;99.90;;;;;;5061532;28;20054;-76
2021/12/31 00:32:10;;;;;;;11.93;2.75;;;12.40;99.90;;;;;;5060251;28;20450;-76
2021/12/31 00:34:36;;;;;;;13.25;2.42;;;12.40;99.90;;;;;;5060271;28;20571;-76
2021/12/31 00:37:02;;;;;;;11.30;2.67;;;12.40;99.90;;;;;;5064672;28;20090;-76
2021/12/31 00:39:27;;;;;;;12.13;2.38;;;12.40;99.90;;;;;;5062680;28;20044;-76
2021/12/31 00:41:53;;;;;;;13.90;2.78;;;12.30;99.90;;;;;;5058332;28;20037;-76
2021/12/31 00:44:20;;;;;;;10.95;2.47;;;12.30;99.90;;;;;;5060882;28;20083;-76
2021/12/31 00:46:47;;;;;;;13.45;2.90;;;12.30;99.90;;;;;;5059617;28;20487;-76
2021/12/31 00:49:13;;;;;;;13.45;2.60;;;12.60;99.90;;;;;;5060364;28;20048;-76
2021/12/31 00:51:39;;;;;;;14.68;2.75;;;12.30;99.90;;;;;;5059214;28;20053;-76
2021/12/31 00:54:04;;;;;;;13.60;2.75;;;12.30;99.90;;;;;;5061338;28;20120;-76
2021/12/31 00:56:30;;;;;;;13.60;3.05;;;12.30;99.90;;;;;;5058917;28;20127;-76
2021/12/31 00:58:56;;;;;;;11.18;3.00;;;12.30;99.90;;;;;;5059358;28;20473;-76
2021/12/31 01:01:23;;;;;;;16.65;3.25;;;12.30;99.90;;;;;;5060199;28;20047;-76
2021/12/31 01:03:49;;;;;;;13.18;3.50;;;12.20;99.90;;;;;;5073404;28;20043;-76
2021/12/31 01:06:15;;;;;;;16.35;3.53;;;12.20;99.90;;;;;;5059848;28;20384;-76
2021/12/31 01:08:41;;;;;;;21.02;4.10;;;12.20;99.90;;;;;;5062121;28;20064;-76
2021/12/31 01:11:08;;;;;;;15.43;3.40;;;12.20;99.90;;;;;;5054759;28;20468;-76
2021/12/31 01:13:47;;;;;;;17.35;3.08;;;12.20;99.90;;;;;;5076655;28;20053;-76
2021/12/31 01:16:14;;;;;;;14.93;2.92;;;12.20;99.90;;;;;;5062699;28;20392;-76
2021/12/31 01:21:15;;;;;;;12.20;3.08;;;12.20;99.90;;;;;;5064265;28;20071;-76
2021/12/31 01:23:41;;;;;;;17.33;3.58;;;12.20;99.90;;;;;;5060174;28;20055;-76
2021/12/31 01:26:07;;;;;;;20.00;3.65;;;12.20;99.90;;;;;;5063707;28;20049;-76
2021/12/31 01:28:33;;;;;;;16.42;3.28;;;12.20;99.90;;;;;;5064566;28;20201;-77
2021/12/31 01:30:59;;;;;;;14.38;3.30;;;12.20;99.90;;;;;;5062135;28;20045;-76
2021/12/31 01:33:24;;;;;;;18.83;3.67;;;12.20;99.90;;;;;;5065985;28;20036;-76
2021/12/31 01:35:50;;;;;;;13.88;3.40;;;12.20;99.90;;;;;;5074014;28;20102;-77
2021/12/31 01:38:16;;;;;;;15.20;3.20;;;12.10;99.90;;;;;;5059307;28;20144;-76
2021/12/31 01:40:42;;;;;;;14.23;3.10;;;12.20;99.90;;;;;;5066295;28;20064;-76
2021/12/31 01:43:10;;;;;;;15.50;3.38;;;12.20;99.90;;;;;;5062919;28;20604;-76
2021/12/31 01:45:43;;;;;;;21.33;3.53;;;12.20;99.90;;;;;;5062675;28;20059;-76
2021/12/31 01:48:21;;;;;;;20.48;3.50;;;12.10;99.90;;;;;;5071300;28;20087;-76
2021/12/31 01:50:49;;;;;;;13.52;3.13;;;12.20;99.90;;;;;;5061895;28;20160;-76
2021/12/31 01:53:15;;;;;;;16.27;2.88;;;12.20;99.90;;;;;;5062818;28;20492;-76
2021/12/31 01:55:41;;;;;;;13.20;3.45;;;12.10;99.90;;;;;;5058026;28;20045;-76
2021/12/31 01:58:09;;;;;;;19.27;3.78;;;12.10;99.90;;;;;;5064903;28;20047;-76
2021/12/31 02:00:37;;;;;;;17.75;3.15;;;12.10;99.90;;;;;;5057553;28;20506;-76
2021/12/31 02:03:04;;;;;;;16.38;3.97;;;12.10;99.90;;;;;;5064050;28;20063;-76
2021/12/31 02:05:30;;;;;;;13.07;2.85;;;12.10;99.90;;;;;;5061948;28;20040;-76
2021/12/31 02:07:57;;;;;;;11.27;2.80;;;12.10;99.90;;;;;;5065018;28;20036;-76
2021/12/31 02:10:23;;;;;;;19.88;3.80;;;12.10;99.90;;;;;;5063161;28;20044;-76
2021/12/31 02:12:49;;;;;;;12.85;3.05;;;12.00;99.90;;;;;;5066795;28;20036;-76
2021/12/31 02:15:16;;;;;;;14.35;3.50;;;12.10;99.90;;;;;;5066124;28;20488;-76
2021/12/31 02:17:44;;;;;;;15.98;4.05;;;12.10;99.90;;;;;;5060384;28;20044;-76
2021/12/31 02:20:11;;;;;;;12.45;3.08;;;12.10;99.90;;;;;;5060531;28;20040;-76
2021/12/31 02:22:43;;;;;;;16.15;3.28;;;12.10;99.90;;;;;;5069418;28;20503;-76
2021/12/31 02:25:09;;;;;;;15.02;3.67;;;12.10;99.90;;;;;;5060006;28;20431;-76
2021/12/31 02:27:39;;;;;;;15.23;3.25;;;12.10;99.90;;;;;;5061066;28;20068;-76
2021/12/31 02:30:07;;;;;;;14.68;2.90;;;12.10;99.90;;;;;;5056092;28;20049;-76
2021/12/31 02:32:33;;;;;;;18.58;3.50;;;12.10;99.90;;;;;;5062281;28;20036;-76
2021/12/31 02:34:59;;;;;;;13.07;3.25;;;12.10;99.90;;;;;;5061432;28;20071;-76
2021/12/31 02:37:25;;;;;;;11.32;2.80;;;12.20;99.90;;;;;;5063525;28;20048;-76
2021/12/31 02:39:51;;;;;;;14.25;3.05;;;12.20;99.90;;;;;;5060021;28;20040;-76
2021/12/31 02:42:16;;;;;;;13.05;2.85;;;12.20;99.90;;;;;;5060784;28;20048;-76
2021/12/31 02:44:43;;;;;;;18.80;3.75;;;12.20;99.90;;;;;;5062698;28;20045;-76
2021/12/31 02:47:09;;;;;;;13.25;3.17;;;12.30;99.90;;;;;;5065397;28;20097;-76
2021/12/31 02:49:39;;;;;;;13.07;2.85;;;12.30;99.90;;;;;;5056408;28;20067;-76
2021/12/31 02:52:09;;;;;;;13.48;2.47;;;12.30;99.90;;;;;;5057172;28;20049;-76
2021/12/31 02:54:38;;;;;;;9.57;2.55;;;12.30;99.90;;;;;;5059271;28;20051;-76
2021/12/31 02:57:06;;;;;;;13.57;2.88;;;12.30;99.90;;;;;;5058128;28;20455;-76
2021/12/31 02:59:34;;;;;;;11.70;3.40;;;12.30;99.90;;;;;;5057319;28;20041;-76
2021/12/31 03:02:00;;;;;;;9.07;2.40;;;12.30;99.90;;;;;;5054089;28;20048;-76
2021/12/31 03:04:27;;;;;;;8.50;3.17;;;12.30;99.90;;;;;;5057323;28;20052;-76
2021/12/31 03:06:57;;;;;;;11.35;2.97;;;12.30;99.90;;;;;;5063094;28;20044;-76
2021/12/31 03:09:24;;;;;;;10.63;3.00;;;12.40;99.90;;;;;;5068652;28;20496;-76
2021/12/31 03:11:57;;;;;;;9.27;3.38;;;12.40;99.90;;;;;;5057067;28;20400;-76
2021/12/31 03:14:25;;;;;;;8.27;2.38;;;12.40;99.90;;;;;;5059918;28;20451;-76
2021/12/31 03:16:51;;;;;;;11.82;2.95;;;12.40;99.90;;;;;;5055866;28;20123;-76
2021/12/31 03:19:17;;;;;;;9.05;2.25;;;12.50;99.90;;;;;;5053203;28;20462;-76
2021/12/31 03:21:43;;;;;;;9.88;2.70;;;12.50;99.90;;;;;;5065510;28;20048;-76
2021/12/31 03:24:09;;;;;;;13.85;3.28;;;12.50;99.90;;;;;;5059981;28;20029;-76
2021/12/31 03:26:34;;;;;;;10.20;3.22;;;12.60;99.90;;;;;;5055042;28;20170;-76
2021/12/31 03:29:01;;;;;;;9.80;3.72;;;12.60;99.90;;;;;;5052683;28;20047;-76
2021/12/31 03:31:27;;;;;;;8.45;2.67;;;12.60;99.90;;;;;;5053677;28;20048;-76
2021/12/31 03:33:53;;;;;;;11.10;2.20;;;12.60;99.90;;;;;;5057569;28;20459;-76
2021/12/31 03:36:19;;;;;;;5.75;2.35;;;12.60;99.90;;;;;;5070199;28;20155;-76
2021/12/31 03:38:45;;;;;;;9.63;2.95;;;12.60;99.90;;;;;;5063450;28;20041;-76
2021/12/31 03:41:10;;;;;;;9.10;2.50;;;12.60;99.90;;;;;;5058858;28;20754;-76
2021/12/31 03:43:36;;;;;;;6.78;2.15;;;12.60;99.90;;;;;;5059450;28;20052;-76
2021/12/31 03:46:02;;;;;;;11.82;3.22;;;12.60;99.90;;;;;;5058724;28;20036;-76
2021/12/31 03:48:27;;;;;;;11.48;2.42;;;12.60;99.90;;;;;;5063193;28;20053;-76
2021/12/31 03:50:53;;;;;;;12.25;2.28;;;12.60;99.90;;;;;;5057929;28;20052;-76
2021/12/31 03:53:19;;;;;;;10.10;2.33;;;12.60;99.90;;;;;;5055927;28;20047;-76
2021/12/31 03:55:46;;;;;;;5.07;2.08;;;12.60;99.90;;;;;;5072730;28;20045;-76
2021/12/31 03:58:12;;;;;;;7.55;2.45;;;12.60;99.90;;;;;;5055528;28;20052;-76
2021/12/31 04:00:38;;;;;;;9.07;2.45;;;12.50;99.90;;;;;;5062332;28;20074;-76
2021/12/31 04:03:09;;;;;;;9.18;2.28;;;12.50;99.90;;;;;;5059416;28;20045;-76
2021/12/31 04:05:36;;;;;;;8.52;2.25;;;12.50;99.90;;;;;;5060276;28;20045;-76
2021/12/31 04:08:02;;;;;;;8.23;2.20;;;12.50;99.90;;;;;;5057516;28;20791;-76
2021/12/31 04:10:28;;;;;;;10.63;2.70;;;12.50;99.90;;;;;;5069812;28;20416;-76
2021/12/31 04:12:54;;;;;;;8.30;2.15;;;12.50;99.90;;;;;;5059080;28;20090;-76
2021/12/31 04:15:20;;;;;;;9.05;2.47;;;12.50;99.90;;;;;;5062402;28;20032;-76
2021/12/31 04:17:46;;;;;;;8.13;2.30;;;12.50;99.90;;;;;;5061686;28;20451;-76
2021/12/31 04:20:20;;;;;;;8.40;2.03;;;12.50;99.90;;;;;;5064257;28;20047;-76
2021/12/31 04:22:55;;;;;;;15.30;3.45;;;12.60;99.90;;;;;;5061402;28;20049;-76
2021/12/31 04:25:22;;;;;;;8.45;1.98;;;12.50;99.90;;;;;;5063442;28;20102;-76
2021/12/31 04:27:47;;;;;;;10.55;2.35;;;12.50;99.90;;;;;;5061523;28;20136;-76
2021/12/31 04:30:13;;;;;;;7.10;2.15;;;12.60;99.90;;;;;;5074624;28;20123;-76
2021/12/31 04:32:40;;;;;;;4.45;2.10;;;12.60;99.90;;;;;;5057809;28;20041;-76
2021/12/31 04:35:10;;;;;;;12.30;2.85;;;12.60;99.90;;;;;;5059729;28;20048;-76
2021/12/31 04:37:35;;;;;;;10.40;2.38;;;12.60;99.90;;;;;;5059623;28;20052;-76
2021/12/31 04:40:01;;;;;;;7.10;2.30;;;12.60;99.90;;;;;;5060184;28;20047;-76
2021/12/31 04:42:27;;;;;;;8.48;2.30;;;12.80;99.90;;;;;;5058965;28;20037;-76
2021/12/31 04:44:53;;;;;;;8.23;2.10;;;12.60;99.90;;;;;;5061197;28;20052;-76
2021/12/31 04:47:18;;;;;;;11.50;2.58;;;12.60;99.90;;;;;;5061590;28;20041;-76
2021/12/31 04:49:44;;;;;;;9.45;2.13;;;12.50;99.90;;;;;;5066507;28;20454;-76
2021/12/31 04:52:09;;;;;;;10.10;2.33;;;12.70;99.90;;;;;;5066386;28;20044;-76
2021/12/31 04:54:35;;;;;;;10.00;2.40;;;12.60;99.90;;;;;;5065034;28;20048;-76
2021/12/31 04:57:02;;;;;;;8.80;1.90;;;12.60;99.90;;;;;;5064339;28;20045;-76
2021/12/31 04:59:28;;;;;;;6.20;2.20;;;12.60;99.90;;;;;;5067755;28;20495;-76
2021/12/31 05:01:54;;;;;;;7.90;2.17;;;12.90;99.90;;;;;;5062490;28;20060;-76
2021/12/31 05:04:19;;;;;;;9.18;2.28;;;12.60;99.90;;;;;;5063395;28;20051;-76
2021/12/31 05:06:47;;;;;;;6.03;1.92;;;12.60;99.90;;;;;;5062715;28;20037;-76
2021/12/31 05:09:13;;;;;;;7.45;1.98;;;12.60;99.90;;;;;;5064237;28;20048;-76
2021/12/31 05:11:38;;;;;;;8.18;2.08;;;12.60;99.90;;;;;;5059327;28;20534;-76
2021/12/31 05:14:04;;;;;;;11.40;3.05;;;12.60;99.90;;;;;;5062508;28;20369;-76
2021/12/31 05:16:30;;;;;;;9.98;2.80;;;12.60;99.90;;;;;;5062298;28;20428;-76
2021/12/31 05:18:56;;;;;;;8.23;3.13;;;12.60;99.90;;;;;;5063200;28;20075;-76
2021/12/31 05:21:21;;;;;;;10.05;3.97;;;12.70;99.90;;;;;;5064895;28;20103;-76
2021/12/31 05:23:47;;;;;;;10.45;3.83;;;12.70;99.90;;;;;;5063845;28;20098;-76
2021/12/31 05:26:13;;;;;;;10.48;3.97;;;12.70;99.90;;;;;;5063587;28;20040;-76
2021/12/31 05:28:38;;;;;;;9.85;3.95;;;12.70;99.90;;;;;;5066762;28;20040;-76
2021/12/31 05:31:04;;;;;;;8.20;4.00;;;12.70;99.90;;;;;;5063391;28;20048;-76
2021/12/31 05:33:30;;;;;;;10.60;4.40;;;12.70;99.90;;;;;;5064735;28;20090;-76
2021/12/31 05:35:59;;;;;;;9.23;3.70;;;12.70;99.90;;;;;;5059940;28;20407;-76
2021/12/31 05:38:26;;;;;;;8.30;3.88;;;12.70;99.90;;;;;;5063888;28;20039;-76
2021/12/31 05:40:51;;;;;;;6.32;3.35;;;12.70;99.90;;;;;;5061697;28;20040;-76
2021/12/31 05:43:17;;;;;;;9.00;3.85;;;12.70;99.90;;;;;;5063384;28;20451;-76
2021/12/31 05:45:42;;;;;;;9.07;3.65;;;12.70;99.90;;;;;;5063075;28;20545;-76
2021/12/31 05:48:08;;;;;;;7.88;3.65;;;12.70;99.90;;;;;;5060956;28;20123;-76
2021/12/31 05:50:37;;;;;;;6.97;3.58;;;12.70;99.90;;;;;;5063465;28;20044;-76
2021/12/31 05:53:02;;;;;;;9.68;3.47;;;12.70;99.90;;;;;;5061643;28;20041;-76
2021/12/31 05:55:29;;;;;;;8.55;3.88;;;12.70;99.90;;;;;;5063369;28;20043;-76
2021/12/31 05:57:56;;;;;;;8.57;3.38;;;12.80;99.90;;;;;;5060760;28;20066;-76
2021/12/31 06:00:22;;;;;;;7.82;3.05;;;12.70;99.90;;;;;;5075945;28;20384;-76
2021/12/31 06:02:49;;;;;;;8.13;3.60;;;12.70;99.90;;;;;;5065019;28;20044;-77
2021/12/31 06:05:15;;;;;;;11.45;3.83;;;12.70;99.90;;;;;;5061790;28;20091;-76
2021/12/31 06:07:40;;;;;;;8.52;3.03;;;12.70;99.90;;;;;;5071488;28;20075;-76
2021/12/31 06:10:06;;;;;;;9.57;3.53;;;12.70;99.90;;;;;;5057864;28;20090;-76
2021/12/31 06:12:35;;;;;;;6.95;3.05;;;12.70;99.90;;;;;;5057615;28;20052;-76
2021/12/31 06:15:03;;;;;;;8.25;2.97;;;12.70;99.90;;;;;;5059586;28;20044;-76
2021/12/31 06:17:30;;;;;;;10.20;2.67;;;12.70;99.90;;;;;;5060517;28;20435;-76
2021/12/31 06:19:56;;;;;;;8.02;2.78;;;12.70;99.90;;;;;;5063088;28;20085;-77
2021/12/31 06:22:23;;;;;;;6.13;2.58;;;12.80;99.90;;;;;;5062181;28;20123;-76
2021/12/31 06:24:50;;;;;;;6.05;2.75;;;12.80;99.90;;;;;;5063154;28;20053;-76
2021/12/31 06:27:16;;;;;;;8.35;2.38;;;12.70;99.90;;;;;;5062979;28;20044;-76
2021/12/31 06:29:42;;;;;;;6.78;2.22;;;12.70;99.90;;;;;;5062676;28;20056;-77
2021/12/31 06:32:08;;;;;;;5.07;2.35;;;12.70;99.90;;;;;;5066482;28;20143;-76
2021/12/31 06:34:33;;;;;;;8.40;2.80;;;12.70;99.90;;;;;;5058803;28;20067;-76
2021/12/31 06:36:59;;;;;;;6.68;2.50;;;12.70;99.90;;;;;;5058761;28;20040;-76
2021/12/31 06:39:26;;;;;;;7.80;2.35;;;12.70;99.90;;;;;;5055129;28;20052;-76
2021/12/31 06:41:52;;;;;;;5.75;2.28;;;12.70;99.90;;;;;;5063066;28;20056;-76
2021/12/31 06:44:18;;;;;;;8.40;2.53;;;12.70;99.90;;;;;;5062876;28;20131;-76
2021/12/31 06:46:43;;;;;;;5.88;2.08;;;12.70;99.90;;;;;;5062493;28;20170;-76
2021/12/31 06:49:09;;;;;;;7.45;2.22;;;12.70;99.90;;;;;;5064965;28;20141;-76
2021/12/31 06:51:34;;;;;;;6.05;2.10;;;12.70;99.90;;;;;;5064589;28;20033;-76
2021/12/31 06:54:00;;;;;;;5.97;2.38;;;12.70;99.90;;;;;;5061014;28;20503;-76
2021/12/31 06:56:25;;;;;;;5.72;2.03;;;12.70;99.90;;;;;;5065127;28;20051;-76
2021/12/31 06:58:51;;;;;;;7.93;2.60;;;12.70;99.90;;;;;;5066684;28;20060;-76
2021/12/31 07:01:17;;;;;;;9.45;2.15;;;12.70;99.90;;;;;;5067032;28;20044;-76
2021/12/31 07:03:42;;;;;;;6.03;2.13;;;12.70;99.90;;;;;;5061973;28;20075;-76
2021/12/31 07:06:08;;;;;;;8.98;2.58;;;12.70;99.90;;;;;;5059940;28;20052;-76
2021/12/31 07:08:33;;;;;;;6.45;1.80;;;12.70;99.90;;;;;;5064733;28;20044;-76
2021/12/31 07:10:59;;;;;;;6.65;2.00;;;12.70;99.90;;;;;;5055518;28;20053;-76
2021/12/31 07:13:25;;;;;;;7.10;1.90;;;12.70;99.90;;;;;;5064364;28;20468;-76
2021/12/31 07:15:51;;;;;;;6.30;1.85;;;12.70;99.90;;;;;;5065546;28;20477;-77
2021/12/31 07:18:18;;;;;;;8.63;2.45;;;12.70;99.90;;;;;;5063475;28;20094;-76
2021/12/31 07:20:45;;;;;;;6.25;2.40;;;12.60;99.90;;;;;;5065107;28;20559;-77
2021/12/31 07:23:13;;;;;;;7.93;1.83;;;12.60;99.90;;;;;;5061809;28;20048;-80
2021/12/31 07:25:39;;;;;;;7.65;2.38;;;12.60;99.90;;;;;;5059128;28;20444;-74
2021/12/31 07:28:06;;;;;;;6.28;2.28;;;12.60;99.90;;;;;;5066103;28;20044;-75
2021/12/31 07:30:32;;;;;;;6.40;2.20;;;12.60;99.90;;;;;;5056961;28;20052;-83
2021/12/31 07:32:58;;;;;;;4.97;1.75;;;12.60;99.90;;;;;;5058569;28;20501;-83
2021/12/31 07:35:24;;;;;;;7.43;2.03;;;12.60;99.90;;;;;;5063336;28;20047;-84
2021/12/31 07:37:56;;;;;;;8.35;2.13;;;12.60;99.90;;;;;;5057851;28;20041;-84
2021/12/31 07:40:38;;;;;;;8.32;2.35;;;12.60;99.90;;;;;;5063947;28;20036;-84
2021/12/31 07:43:08;;;;;;;6.28;2.05;;;12.50;99.90;;;;;;5058979;28;20040;-84
2021/12/31 07:45:34;;;;;;;8.30;2.20;;;12.50;99.90;;;;;;5058815;28;20491;-84
2021/12/31 07:48:00;;;;;;;5.30;2.30;;;12.40;99.90;;;;;;5059599;28;20057;-85
2021/12/31 07:50:26;;;;;;;7.63;2.13;;;12.40;99.90;;;;;;5058496;28;20055;-85
2021/12/31 07:52:52;;;;;;;8.45;2.30;;;12.40;99.90;;;;;;5055330;28;20048;-84
2021/12/31 07:55:17;;;;;;;11.05;2.60;;;12.30;99.90;;;;;;5055443;28;20063;-84
2021/12/31 07:57:43;;;;;;;5.88;2.10;;;12.30;99.90;;;;;;5061474;28;20040;-84
2021/12/31 08:00:09;;;;;;;5.35;2.45;;;12.30;99.90;;;;;;5063507;28;20037;-84
2021/12/31 08:02:34;;;;;;;7.25;2.50;;;12.30;99.90;;;;;;5063933;28;20660;-84
2021/12/31 08:05:00;;;;;;;8.43;2.72;;;12.30;99.90;;;;;;5063777;28;20045;-83
2021/12/31 08:07:26;;;;;;;5.93;2.78;;;12.30;99.90;;;;;;5063892;28;20098;-84
2021/12/31 08:09:51;;;;;;;5.57;2.45;;;12.30;99.90;;;;;;5062797;28;20511;-85
2021/12/31 08:12:17;;;;;;;6.65;2.72;;;12.30;99.90;;;;;;5057838;28;20116;-85
2021/12/31 08:14:42;;;;;;;6.47;2.35;;;12.30;99.90;;;;;;5067773;28;20037;-84
2021/12/31 08:17:08;;;;;;;8.65;2.60;;;12.30;99.90;;;;;;5065359;28;20040;-84
2021/12/31 08:19:34;;;;;;;6.20;3.15;;;12.30;99.90;;;;;;5059412;28;20170;-86
2021/12/31 08:21:59;;;;;;;6.35;2.80;;;12.40;99.90;;;;;;5067288;28;20576;-85
2021/12/31 08:24:25;;;;;;;5.25;2.47;;;12.40;99.90;;;;;;5070668;28;20059;-85
2021/12/31 08:26:50;;;;;;;3.85;2.05;;;12.40;99.90;;;;;;5071307;28;20395;-89
2021/12/31 08:29:17;;;;;;;7.38;2.38;;;12.40;99.90;;;;;;5066085;28;20051;-89
2021/12/31 08:31:43;;;;;;;7.13;2.40;;;12.40;99.90;;;;;;5064649;28;20045;-89
2021/12/31 08:34:09;;;;;;;6.78;2.25;;;12.40;99.90;;;;;;5066323;28;20045;-87
2021/12/31 08:36:35;;;;;;;6.15;2.55;;;12.40;99.90;;;;;;5070071;28;20043;-88
2021/12/31 08:39:01;;;;;;;7.15;2.45;;;12.40;99.90;;;;;;5064183;28;20534;-82
2021/12/31 08:41:27;;;;;;;10.30;2.75;;;12.40;99.90;;;;;;5062754;28;20048;-83
2021/12/31 08:43:52;;;;;;;9.13;2.30;;;12.40;99.90;;;;;;5063913;28;20044;-83
2021/12/31 08:46:18;;;;;;;4.68;2.47;;;12.50;99.90;;;;;;5067624;28;20388;-83
2021/12/31 08:48:43;;;;;;;7.03;2.47;;;12.50;99.90;;;;;;5066979;28;20070;-83
2021/12/31 08:51:09;;;;;;;8.32;2.67;;;12.50;99.90;;;;;;5065326;28;20080;-83
2021/12/31 08:53:35;;;;;;;8.85;2.92;;;12.50;99.90;;;;;;5064676;28;20052;-83
2021/12/31 08:56:00;;;;;;;8.52;2.22;;;12.50;99.90;;;;;;5066117;28;20069;-83
2021/12/31 08:58:26;;;;;;;6.70;2.42;;;12.60;99.90;;;;;;5071474;28;20141;-82
2021/12/31 09:00:51;;;;;;;6.13;2.75;;;12.50;99.90;;;;;;5072863;28;20051;-83
2021/12/31 09:03:17;;;;;;;6.75;2.35;;;12.60;99.90;;;;;;5067109;28;20087;-83
2021/12/31 09:05:42;;;;;;;7.38;2.63;;;12.60;99.90;;;;;;5064156;28;20051;-83
2021/12/31 09:08:08;;;;;;;7.47;2.63;;;12.60;99.90;;;;;;5065803;28;20124;-83
2021/12/31 09:10:34;;;;;;;5.75;2.33;;;12.60;99.90;;;;;;5072427;28;20116;-83
2021/12/31 09:13:00;;;;;;;7.53;2.83;;;12.80;99.90;;;;;;5063193;28;20139;-83
2021/12/31 09:15:25;;;;;;;6.50;3.10;;;12.60;99.90;;;;;;5068554;28;20048;-83
2021/12/31 09:17:51;;;;;;;8.02;4.18;;;12.60;99.90;;;;;;5069197;28;20032;-83
2021/12/31 09:20:17;;;;;;;7.82;3.10;;;12.60;99.90;;;;;;5068028;28;20044;-83
2021/12/31 09:22:43;;;;;;;7.50;3.00;;;12.60;99.90;;;;;;5072193;28;20054;-83
2021/12/31 09:25:08;;;;;;;7.22;3.10;;;12.60;99.90;;;;;;5070494;28;20495;-83
2021/12/31 09:27:34;;;;;;;7.90;3.47;;;12.60;99.90;;;;;;5070368;28;20559;-83
2021/12/31 09:30:00;;;;;;;6.10;2.90;;;12.60;99.90;;;;;;5066311;28;20392;-83
2021/12/31 09:32:26;;;;;;;5.93;2.83;;;12.60;99.90;;;;;;5071268;28;20044;-83
2021/12/31 09:34:51;;;;;;;5.35;2.25;;;12.60;99.90;;;;;;5067018;28;20040;-83
2021/12/31 09:37:18;;;;;;;6.68;2.60;;;12.60;99.90;;;;;;5072503;28;20090;-83
2021/12/31 09:39:44;;;;;;;7.32;2.60;;;12.60;99.90;;;;;;5062301;28;20045;-83
2021/12/31 09:42:10;;;;;;;6.53;3.05;;;12.60;99.90;;;;;;5067277;28;20649;-83
2021/12/31 09:44:37;;;;;;;6.95;2.47;;;12.60;99.90;;;;;;5070984;28;20059;-83
2021/12/31 09:47:10;;;;;;;4.95;2.42;;;12.70;99.90;;;;;;5063448;28;20044;-83
2021/12/31 09:49:37;;;;;;;6.63;3.15;;;12.70;99.90;;;;;;5062688;28;20106;-80
2021/12/31 09:52:03;;;;;;;12.40;2.70;;;12.70;99.90;;;;;;5062107;28;20481;-80
2021/12/31 09:54:28;;;;;;;6.55;2.78;;;12.70;99.90;;;;;;5056080;28;20091;-80
2021/12/31 09:56:54;;;;;;;6.45;2.30;;;12.70;99.90;;;;;;5067755;28;20033;-80
2021/12/31 09:59:21;;;;;;;6.35;2.47;;;12.70;99.90;;;;;;5066180;28;20116;-80
2021/12/31 10:01:52;;;;;;;5.90;2.53;;;12.70;99.90;;;;;;5065907;28;20553;-81
2021/12/31 10:04:18;;;;;;;6.07;2.30;;;12.70;99.90;;;;;;5066847;28;20052;-82
2021/12/31 10:07:12;;;;;;;5.75;2.58;;;12.60;99.90;;;;;;5067986;28;20449;-82
2021/12/31 10:09:40;;;;;;;6.53;2.55;;;12.60;99.90;;;;;;5073012;28;20055;-82
2021/12/31 10:12:07;;;;;;;6.32;2.70;;;12.60;99.90;;;;;;5061477;28;20087;-82
2021/12/31 10:14:39;;;;;;;4.90;2.63;;;12.70;99.90;;;;;;5066192;28;20040;-80
2021/12/31 10:17:06;;;;;;;8.38;3.13;;;12.60;99.90;;;;;;5064493;28;20056;-78
2021/12/31 10:19:32;;;;;;;5.82;2.58;;;12.60;99.90;;;;;;5065653;28;20076;-81
2021/12/31 10:21:58;;;;;;;7.97;3.13;;;12.60;99.90;;;;;;5069274;28;20048;-82
2021/12/31 10:24:36;;;;;;;5.90;2.78;;;12.60;99.90;;;;;;5070200;28;20064;-82
2021/12/31 10:27:13;;;;;;;8.23;2.88;;;12.60;99.90;;;;;;5067689;28;20070;-82
2021/12/31 10:29:55;;;;;;;8.43;3.42;;;12.50;99.90;;;;;;5067383;28;20098;-81
2021/12/31 10:32:22;;;;;;;7.97;2.90;;;12.40;99.90;;;;;;5065253;28;20139;-81
2021/12/31 10:34:49;;;;;;;8.13;3.30;;;12.40;99.90;;;;;;5066933;28;20758;-81
2021/12/31 10:37:17;;;;;;;8.70;3.53;;;12.40;99.90;;;;;;5069534;28;20040;-81
2021/12/31 10:39:44;;;;;;;7.38;3.38;;;12.30;99.90;;;;;;5061601;28;20052;-81
2021/12/31 10:42:12;;;;;;;6.32;3.00;;;12.30;99.90;;;;;;5061563;28;20037;-81
2021/12/31 10:44:52;;;;;;;8.02;3.25;;;12.30;99.90;;;;;;5062160;28;20053;-88
2021/12/31 10:47:29;;;;;;;7.90;3.47;;;12.30;99.90;;;;;;5060963;28;20060;-88
2021/12/31 10:50:04;;;;;;;6.68;2.97;;;12.30;99.90;;;;;;5064246;28;20526;-88
2021/12/31 10:52:36;;;;;;;9.85;2.92;;;12.30;99.90;;;;;;5071573;28;20045;-85
2021/12/31 10:55:17;;;;;;;9.23;3.38;;;12.20;99.90;;;;;;5064261;28;20048;-86
2021/12/31 10:57:45;;;;;;;6.10;2.80;;;12.30;99.90;;;;;;5074944;28;20084;-86
2021/12/31 11:00:14;;;;;;;7.50;3.30;;;12.20;99.90;;;;;;5063375;28;20036;-89
2021/12/31 11:02:40;;;;;;;6.95;3.10;;;12.20;99.90;;;;;;5061848;28;20045;-89
2021/12/31 11:05:07;;;;;;;6.18;2.80;;;12.40;99.90;;;;;;5063811;28;20083;-87
2021/12/31 11:07:34;;;;;;;7.45;3.08;;;12.20;99.90;;;;;;5071456;28;20060;-88
2021/12/31 11:10:00;;;;;;;6.30;2.88;;;12.20;99.90;;;;;;5062479;28;20044;-88
2021/12/31 11:12:27;;;;;;;9.18;3.40;;;12.20;99.90;;;;;;5059302;28;20512;-88
2021/12/31 11:14:54;;;;;;;11.82;3.35;;;12.80;99.90;;;;;;5066171;28;20055;-88
2021/12/31 11:17:24;;;;;;;8.43;3.08;;;12.20;99.90;;;;;;5062401;28;20056;-88
2021/12/31 11:19:50;;;;;;;6.95;3.33;;;12.20;99.90;;;;;;5076690;28;20123;-88
2021/12/31 11:22:21;;;;;;;11.93;4.60;;;12.20;99.90;;;;;;5067285;28;20499;-88
2021/12/31 11:24:47;;;;;;;9.18;3.95;;;12.20;99.90;;;;;;5065099;28;20485;-86
2021/12/31 11:27:42;;;;;;;10.05;3.70;;;12.20;99.90;;;;;;5063385;28;20047;-84
2021/12/31 11:30:27;;;;;;;11.32;4.55;;;12.20;99.90;;;;;;5058751;28;20049;-86
2021/12/31 11:33:14;;;;;;;;;;;12.10;99.90;;;;;;5062625;28;20086;-85
2021/12/31 11:35:46;;;;;;;9.45;4.65;;;12.30;99.90;;;;;;5056059;28;19924;-85
2021/12/31 11:38:21;;;;;;;10.18;3.97;;;12.10;99.90;;;;;;5062599;28;20045;-86
2021/12/31 11:41:00;;;;;;;9.93;4.10;;;12.00;99.90;;;;;;5062146;28;20399;-87
2021/12/31 11:43:27;;;;;;;9.82;4.05;;;12.00;99.90;;;;;;5062293;28;20049;-86
2021/12/31 11:46:12;;;;;;;10.98;4.05;;;12.00;99.90;;;;;;5068861;28;20072;-85
2021/12/31 11:48:51;;;;;;;9.65;3.88;;;12.00;99.90;;;;;;5065846;28;20064;-85
2021/12/31 11:51:39;;;;;;;9.07;4.22;;;11.90;99.90;;;;;;5067031;28;20194;-85
2021/12/31 11:54:06;;;;;;;7.65;4.47;;;11.90;99.90;;;;;;5066789;28;20081;-85
2021/12/31 11:56:43;;;;;;;11.75;4.50;;;11.90;99.90;;;;;;5063947;28;20047;-86
2021/12/31 11:59:12;;;;;;;14.02;5.60;;;11.90;99.90;;;;;;5060013;28;20106;-85
2021/12/31 12:01:37;;;;;;;11.85;4.90;;;11.90;99.90;;;;;;5055680;28;20120;-86
2021/12/31 12:04:22;;;;;;;15.70;5.75;;;12.30;99.90;;;;;;5064899;28;20128;-86
2021/12/31 12:06:54;;;;;;;16.27;7.25;;;11.80;99.90;;;;;;5065335;28;20041;-85
2021/12/31 12:09:20;;;;;;;10.60;5.43;;;11.80;99.90;;;;;;5058388;28;20045;-84
2021/12/31 12:12:08;;;;;;;11.50;5.47;;;11.80;99.90;;;;;;5056286;28;20036;-84
2021/12/31 12:14:36;;;;;;;9.95;4.60;;;11.80;99.90;;;;;;5071866;28;20056;-84
2021/12/31 12:17:03;;;;;;;13.32;5.72;;;11.80;99.90;;;;;;5053597;28;20484;-84
2021/12/31 12:19:46;;;;;;;15.45;5.30;;;11.70;99.90;;;;;;5063042;28;20082;-85
2021/12/31 12:22:40;;;;;;;10.15;4.80;;;11.70;99.90;;;;;;5060878;28;20131;-81
2021/12/31 12:25:15;;;;;;;10.15;5.10;;;11.70;99.90;;;;;;5063982;28;20040;-87
2021/12/31 12:27:42;;;;;;;10.48;4.60;;;11.70;99.90;;;;;;5058038;28;20052;-85
2021/12/31 12:30:11;;;;;;;10.73;4.90;;;11.70;99.90;;;;;;5061800;28;20036;-83
2021/12/31 12:32:40;;;;;;;12.88;5.18;;;11.60;99.90;;;;;;5059168;28;20040;-87
2021/12/31 12:35:16;;;;;;;9.82;4.93;;;11.70;99.90;;;;;;5063675;28;20066;-83
2021/12/31 12:37:43;;;;;;;9.20;5.00;;;11.70;99.90;;;;;;5068353;28;20044;-84
2021/12/31 12:40:10;;;;;;;11.77;5.03;;;11.60;99.90;;;;;;5064446;28;21111;-87
2021/12/31 12:42:36;;;;;;;11.25;5.20;;;11.60;99.90;;;;;;5070688;28;20503;-86
2021/12/31 12:45:05;;;;;;;15.02;6.05;;;11.60;99.90;;;;;;5061829;28;20103;-84
2021/12/31 12:47:31;;;;;;;10.25;5.90;;;11.60;99.90;;;;;;5066002;28;20048;-84
2021/12/31 12:49:58;;;;;;;9.77;5.55;;;11.60;99.90;;;;;;5061340;28;20483;-86